Alford, United Kingdom
Current Conditions -  °F | °C
As of 8:20 AM on Saturday 25 Oct 2014 (Local Time) from EGPD Reporting Station
Scattered Clouds Scattered Clouds  
Wind Chill: 50°   Ceiling: Unl
Heat Index: 50°   Visibility: 6mi
Dew Point: 45°   Wind: 18mph
Humidity: 82%   Direction: 190°S
Pressure: 29.56"   Gusts: 30mph
Location:  57.23°N, 2.7°W
Report Text: EGPD 250720Z 19016G26KT 9999 SCT018 SCT025 10/07 Q1001 NOSIG
Loading
Personal Weather Stations






























Interactive Weather Map New forecast layout! Learn more

10-Day Weather Forecast

Advertisements
Track Severe Weather on mobile